METAR Data
IDs: Format: Raw Decoded Include TAF

Data at: 0025 UTC 24 Mar 2019

METAR for:KEDC (Austin/Executive Arp, TX, US)
Text:KEDC 240015Z AUTO 00000KT 10SM OVC035 22/15 A3004 RMK AO2
Temperature: 22.0°C ( 72°F)
Dewpoint: 15.0°C ( 59°F) [RH = 65%]
Pressure (altimeter):30.04 inches Hg (1017.4 mb)
Winds:calm
Visibility:10 or more sm (16+ km)
Ceiling:3500 feet AGL
Clouds: overcast cloud deck at 3500 feet AGL
QC Flag:automated observation with no human augmentation